Tropical Cyclones
[Index]
Main Index Home Page Stock Weather Photos Extreme Storms Discussion Storm News and Storm Chasing Reports Tropical Cyclones / Hurricanes / Typhoons Weather Data and Links Wild Fires / Bushfires Weather Observation Techniques Weather Picture Catalogue Tornado Pictures and Reports Stock Video Footage and DVDs for sale
Season 2014-2015 Tropical Cyclone HALIBA Track Map
Season 2014-2015 Summaries: [BoM-AU] [JTWC-AU] [JTWC-SIO] [JTWC-SPAC] [JTWC-SH]
<<- Previous TC | JTWC 2014-2015 Season | Next TC ->>

click for intensity scale information  Lat/long Grid: Show Hide

 Date Labels: Show Hide

Joint Typhoon Warning Centre Cyclone Data

Name: HALIBA

06 Mar 2015 12:00 UTC to 11 Mar 2015 12:00 UTC

    date/time    lat    long     hPa   cat  kts
2015-03-06 12   17.3    50.5    1004         25          
2015-03-06 18   17.7    50.3    1000         30          
2015-03-07 00   18.0    50.2    1000         30          
2015-03-07 06   18.3    50.0    1000         30          
2015-03-07 12   18.6    49.9    1000         30          
2015-03-07 18   19.0    49.9    1000         30          
2015-03-07 21   19.2    50.0     996         35          
2015-03-08 00   19.4    50.2     996         35          
2015-03-08 06   19.6    50.9     996         35          
2015-03-08 12   19.9    51.7     996         35          
2015-03-08 18   20.3    52.4     993    1    40          
2015-03-09 00   21.0    53.4     993    1    40          
2015-03-09 06   21.5    54.2     993    1    40          
2015-03-09 12   21.9    54.9     993    1    40          
2015-03-09 18   22.3    55.4     996         35          
2015-03-10 00   23.2    55.5     996         35          
2015-03-10 06   23.8    55.3    1000         30          
2015-03-10 12   24.4    54.8    1000         30          
2015-03-10 18   24.7    54.1    1000         30          
2015-03-11 00   24.9    53.7    1000         30          
2015-03-11 06   24.6    53.6     996         35          
2015-03-11 09   24.0    54.1     996         35          
2015-03-11 12   23.8    55.2     996         35          
Winds are 1-min average.

Tropical cyclone tracks developed by Michael Bath using data from the Joint Typhoon Warning Centre Best Tracks and Google Maps.


[Australian Severe Weather index] [Copyright Notice] [Email Contacts] [Search This Site] [Privacy Policy]
Document: tropical_cyclone_haliba.htm Updated: 28 June 2017